VLG7UU LECO-LFPO
Flight info
| Callsign | VLG7UU |
|---|---|
| Flight time | N/A |
| Altitude | 24000 |
| Route | MEGAT P600 LOTEE/N0445F380 DCT AZFIC UN741 ANG/N0395F300 UN741 KEPER/N0381F280 UT182 LUMAN |
| Aircraft | A20N/M-SDFGHILORVWXY/LB1 |
Departure
| Time | 2026-05-05 14:39 |
|---|---|
| Airport | A Coruña Airport (LECO) |
Arrival
| Time | N/A |
|---|---|
| Airport | Paris-Orly Airport (LFPO) |
| Time | Latitude | Longitude | Altitude | Speed | Heading |
|---|---|---|---|---|---|
| 2026-05-05 12:31 | 43.30164 | -8.38086 | 322 ft | 0 kts | 327° |
| 2026-05-05 14:28 | 43.30163 | -8.38085 | 322 ft | 0 kts | 327° |
| 2026-05-05 14:29 | 43.30159 | -8.38081 | 322 ft | 2 kts | 327° |
| 2026-05-05 14:29 | 43.30148 | -8.38071 | 321 ft | 1 kts | 327° |
| 2026-05-05 14:30 | 43.30139 | -8.38063 | 321 ft | 2 kts | 306° |
| 2026-05-05 14:30 | 43.30134 | -8.38043 | 320 ft | 2 kts | 267° |
| 2026-05-05 14:30 | 43.30139 | -8.38023 | 319 ft | 2 kts | 230° |
| 2026-05-05 14:30 | 43.30145 | -8.38015 | 318 ft | 1 kts | 209° |
| 2026-05-05 14:31 | 43.30151 | -8.38011 | 318 ft | 0 kts | 211° |
| 2026-05-05 14:34 | 43.30148 | -8.38013 | 318 ft | 0 kts | 212° |
| 2026-05-05 14:35 | 43.30135 | -8.38024 | 319 ft | 7 kts | 213° |
| 2026-05-05 14:35 | 43.30062 | -8.38074 | 322 ft | 11 kts | 192° |
| 2026-05-05 14:35 | 43.30003 | -8.38072 | 321 ft | 2 kts | 172° |
| 2026-05-05 14:35 | 43.29964 | -8.38048 | 319 ft | 17 kts | 137° |
| 2026-05-05 14:36 | 43.29874 | -8.37996 | 312 ft | 17 kts | 213° |
| 2026-05-05 14:36 | 43.29776 | -8.38080 | 312 ft | 16 kts | 214° |
| 2026-05-05 14:36 | 43.29671 | -8.38169 | 308 ft | 19 kts | 207° |
| 2026-05-05 14:36 | 43.29539 | -8.38270 | 298 ft | 23 kts | 213° |
| 2026-05-05 14:37 | 43.29382 | -8.38402 | 280 ft | 29 kts | 211° |
| 2026-05-05 14:37 | 43.29263 | -8.38532 | 269 ft | 15 kts | 246° |
| 2026-05-05 14:37 | 43.29182 | -8.38584 | 260 ft | 18 kts | 111° |
| 2026-05-05 14:37 | 43.29250 | -8.38510 | 267 ft | 4 kts | 32° |
| 2026-05-05 14:38 | 43.29251 | -8.38509 | 267 ft | 2 kts | 32° |
| 2026-05-05 14:38 | 43.29425 | -8.38366 | 285 ft | 67 kts | 30° |
| 2026-05-05 14:38 | 43.30033 | -8.37865 | 310 ft | 136 kts | 31° |
| 2026-05-05 14:38 | 43.30954 | -8.37117 | 761 ft | 156 kts | 27° |
| 2026-05-05 14:39 | 43.31867 | -8.36373 | 1520 ft | 159 kts | 35° |
| 2026-05-05 14:39 | 43.32499 | -8.35069 | 2105 ft | 178 kts | 65° |
| 2026-05-05 14:39 | 43.32880 | -8.33379 | 2658 ft | 196 kts | 72° |
| 2026-05-05 14:39 | 43.33242 | -8.31496 | 3208 ft | 214 kts | 72° |
| 2026-05-05 14:40 | 43.33643 | -8.29474 | 3891 ft | 224 kts | 72° |
| 2026-05-05 14:40 | 43.34079 | -8.27382 | 4634 ft | 232 kts | 71° |
| 2026-05-05 14:40 | 43.34526 | -8.25304 | 5583 ft | 229 kts | 70° |
| 2026-05-05 14:40 | 43.34983 | -8.23218 | 6427 ft | 231 kts | 70° |
| 2026-05-05 14:41 | 43.35454 | -8.21112 | 7246 ft | 233 kts | 69° |
| 2026-05-05 14:41 | 43.35959 | -8.19009 | 8009 ft | 238 kts | 68° |
| 2026-05-05 14:41 | 43.36499 | -8.16805 | 8507 ft | 254 kts | 69° |
| 2026-05-05 14:41 | 43.37080 | -8.14422 | 8986 ft | 272 kts | 69° |
| 2026-05-05 14:42 | 43.37692 | -8.11880 | 9582 ft | 285 kts | 69° |
| 2026-05-05 14:42 | 43.38310 | -8.09286 | 10385 ft | 289 kts | 69° |
| 2026-05-05 14:42 | 43.38942 | -8.06624 | 10939 ft | 303 kts | 69° |
| 2026-05-05 14:42 | 43.39610 | -8.03814 | 11370 ft | 320 kts | 69° |
| 2026-05-05 14:43 | 43.40308 | -8.00869 | 12022 ft | 328 kts | 69° |
| 2026-05-05 14:43 | 43.41011 | -7.97883 | 12818 ft | 331 kts | 70° |
| 2026-05-05 14:43 | 43.41720 | -7.94866 | 13584 ft | 335 kts | 69° |
| 2026-05-05 14:43 | 43.42437 | -7.91814 | 14336 ft | 338 kts | 69° |
| 2026-05-05 14:44 | 43.43158 | -7.88740 | 15061 ft | 342 kts | 69° |
| 2026-05-05 14:44 | 43.43884 | -7.85642 | 15774 ft | 346 kts | 69° |
| 2026-05-05 14:44 | 43.44621 | -7.82493 | 16468 ft | 349 kts | 69° |
| 2026-05-05 14:44 | 43.45367 | -7.79298 | 17153 ft | 353 kts | 69° |
| 2026-05-05 14:45 | 43.46118 | -7.76079 | 17815 ft | 357 kts | 69° |
| 2026-05-05 14:45 | 43.46878 | -7.72812 | 18450 ft | 360 kts | 69° |
| 2026-05-05 14:45 | 43.47644 | -7.69520 | 19074 ft | 364 kts | 69° |
| 2026-05-05 14:45 | 43.48410 | -7.66223 | 19688 ft | 368 kts | 69° |
| 2026-05-05 14:46 | 43.49206 | -7.62871 | 20303 ft | 370 kts | 66° |
| 2026-05-05 14:46 | 43.50328 | -7.59680 | 20909 ft | 370 kts | 55° |
| 2026-05-05 14:46 | 43.51833 | -7.56851 | 21506 ft | 369 kts | 45° |
| 2026-05-05 14:46 | 43.53562 | -7.54255 | 22110 ft | 372 kts | 43° |
| 2026-05-05 14:47 | 43.55339 | -7.51669 | 22709 ft | 375 kts | 43° |
| 2026-05-05 14:47 | 43.57144 | -7.49041 | 23297 ft | 377 kts | 43° |
| 2026-05-05 14:47 | 43.58938 | -7.46418 | 23885 ft | 380 kts | 43° |
| 2026-05-05 14:47 | 43.60735 | -7.43777 | 24670 ft | 376 kts | 43° |
| 2026-05-05 14:48 | 43.62487 | -7.41187 | 25567 ft | 367 kts | 43° |
| 2026-05-05 14:48 | 43.64198 | -7.38656 | 26145 ft | 366 kts | 43° |
| 2026-05-05 14:48 | 43.65955 | -7.36058 | 26600 ft | 369 kts | 43° |
| 2026-05-05 14:48 | 43.67690 | -7.33488 | 27018 ft | 372 kts | 43° |
| 2026-05-05 14:49 | 43.69469 | -7.30836 | 27411 ft | 375 kts | 43° |
| 2026-05-05 14:49 | 43.71229 | -7.28209 | 27803 ft | 378 kts | 43° |
| 2026-05-05 14:49 | 43.73016 | -7.25549 | 28177 ft | 381 kts | 43° |
| 2026-05-05 14:49 | 43.74834 | -7.22835 | 28546 ft | 384 kts | 43° |
| 2026-05-05 14:50 | 43.76633 | -7.20151 | 28904 ft | 386 kts | 43° |
| 2026-05-05 14:50 | 43.78453 | -7.17435 | 29243 ft | 388 kts | 43° |
| 2026-05-05 14:50 | 43.80301 | -7.14675 | 29580 ft | 390 kts | 43° |
| 2026-05-05 14:50 | 43.82140 | -7.11929 | 29893 ft | 392 kts | 43° |
| 2026-05-05 14:51 | 43.84008 | -7.09132 | 30196 ft | 394 kts | 43° |
| 2026-05-05 14:51 | 43.85854 | -7.06367 | 30480 ft | 396 kts | 43° |
| 2026-05-05 14:51 | 43.87745 | -7.03537 | 30764 ft | 398 kts | 43° |
| 2026-05-05 14:51 | 43.89628 | -7.00714 | 31030 ft | 400 kts | 43° |
| 2026-05-05 14:52 | 43.91493 | -6.97912 | 31286 ft | 402 kts | 43° |
| 2026-05-05 14:52 | 43.93392 | -6.95057 | 31533 ft | 404 kts | 43° |
| 2026-05-05 14:52 | 43.95300 | -6.92187 | 31794 ft | 406 kts | 44° |
| 2026-05-05 14:52 | 43.97232 | -6.89275 | 32050 ft | 408 kts | 44° |
| 2026-05-05 14:53 | 43.99144 | -6.86390 | 32273 ft | 411 kts | 44° |
| 2026-05-05 14:53 | 44.01100 | -6.83437 | 32516 ft | 413 kts | 44° |
| 2026-05-05 14:53 | 44.03043 | -6.80500 | 32767 ft | 415 kts | 44° |
| 2026-05-05 14:53 | 44.04980 | -6.77568 | 32978 ft | 417 kts | 44° |
| 2026-05-05 14:54 | 44.06941 | -6.74598 | 33198 ft | 419 kts | 44° |
| 2026-05-05 14:54 | 44.08920 | -6.71595 | 33413 ft | 420 kts | 44° |
| 2026-05-05 14:54 | 44.10889 | -6.68608 | 33615 ft | 422 kts | 44° |
| 2026-05-05 14:54 | 44.12881 | -6.65601 | 33827 ft | 423 kts | 44° |
| 2026-05-05 14:55 | 44.14854 | -6.62619 | 34087 ft | 423 kts | 44° |
| 2026-05-05 14:55 | 44.16853 | -6.59591 | 34353 ft | 423 kts | 44° |
| 2026-05-05 14:55 | 44.18818 | -6.56604 | 34599 ft | 423 kts | 44° |
| 2026-05-05 14:55 | 44.20802 | -6.53582 | 34838 ft | 423 kts | 44° |
| 2026-05-05 14:56 | 44.22807 | -6.50520 | 35075 ft | 423 kts | 44° |
| 2026-05-05 14:56 | 44.24771 | -6.47519 | 35317 ft | 423 kts | 44° |
| 2026-05-05 14:56 | 44.26759 | -6.44474 | 35563 ft | 423 kts | 44° |
| 2026-05-05 14:56 | 44.28734 | -6.41445 | 35781 ft | 423 kts | 45° |
| 2026-05-05 14:57 | 44.30701 | -6.38426 | 35978 ft | 423 kts | 45° |
| 2026-05-05 14:57 | 44.32668 | -6.35403 | 36166 ft | 424 kts | 45° |
| 2026-05-05 14:57 | 44.34658 | -6.32335 | 36336 ft | 425 kts | 45° |
| 2026-05-05 14:57 | 44.36620 | -6.29299 | 36496 ft | 425 kts | 45° |
| 2026-05-05 14:58 | 44.38617 | -6.26211 | 36666 ft | 426 kts | 46° |
| 2026-05-05 14:58 | 44.40579 | -6.23175 | 36834 ft | 426 kts | 46° |
| 2026-05-05 14:58 | 44.42581 | -6.20079 | 36999 ft | 427 kts | 46° |
| 2026-05-05 14:58 | 44.44569 | -6.17000 | 37152 ft | 427 kts | 46° |
| 2026-05-05 14:59 | 44.46541 | -6.13944 | 37300 ft | 428 kts | 46° |
| 2026-05-05 14:59 | 44.48529 | -6.10861 | 37463 ft | 428 kts | 46° |
| 2026-05-05 14:59 | 44.50508 | -6.07788 | 37620 ft | 428 kts | 46° |
| 2026-05-05 14:59 | 44.52511 | -6.04673 | 37772 ft | 428 kts | 46° |
| 2026-05-05 15:00 | 44.55823 | -5.99517 | 37873 ft | 432 kts | 46° |
| 2026-05-05 15:00 | 44.60548 | -5.92137 | 37971 ft | 439 kts | 46° |
| 2026-05-05 15:01 | 44.64643 | -5.85735 | 37974 ft | 447 kts | 46° |
| 2026-05-05 15:01 | 44.69035 | -5.79469 | 37975 ft | 453 kts | 42° |
| 2026-05-05 15:02 | 44.73564 | -5.73305 | 37970 ft | 459 kts | 42° |
| 2026-05-05 15:02 | 44.78172 | -5.67011 | 37969 ft | 464 kts | 42° |
| 2026-05-05 15:03 | 44.82800 | -5.60657 | 37977 ft | 468 kts | 42° |
| 2026-05-05 15:03 | 44.87451 | -5.54250 | 37982 ft | 472 kts | 42° |
| 2026-05-05 15:04 | 44.92142 | -5.47773 | 37984 ft | 475 kts | 43° |
| 2026-05-05 15:04 | 44.96840 | -5.41268 | 37981 ft | 476 kts | 43° |
| 2026-05-05 15:05 | 45.03907 | -5.31439 | 37979 ft | 476 kts | 43° |
| 2026-05-05 15:06 | 45.08580 | -5.24899 | 37979 ft | 476 kts | 43° |
| 2026-05-05 15:06 | 45.13305 | -5.18306 | 37975 ft | 476 kts | 43° |
| 2026-05-05 15:07 | 45.17995 | -5.11774 | 37976 ft | 475 kts | 43° |
| 2026-05-05 15:07 | 45.22687 | -5.05205 | 37971 ft | 475 kts | 43° |
| 2026-05-05 15:08 | 45.27380 | -4.98606 | 37967 ft | 475 kts | 43° |
| 2026-05-05 15:08 | 45.32061 | -4.92004 | 37967 ft | 475 kts | 43° |
| 2026-05-05 15:09 | 45.36733 | -4.85403 | 37965 ft | 475 kts | 44° |
| 2026-05-05 15:09 | 45.41392 | -4.78801 | 37964 ft | 475 kts | 44° |
| 2026-05-05 15:10 | 45.46066 | -4.72158 | 37961 ft | 475 kts | 44° |
| 2026-05-05 15:10 | 45.50729 | -4.65518 | 37959 ft | 476 kts | 44° |
| 2026-05-05 15:11 | 45.55385 | -4.58867 | 37964 ft | 476 kts | 44° |
| 2026-05-05 15:11 | 45.60038 | -4.52205 | 37957 ft | 476 kts | 44° |
| 2026-05-05 15:12 | 45.64682 | -4.45543 | 37960 ft | 475 kts | 44° |
| 2026-05-05 15:12 | 45.69341 | -4.38841 | 37959 ft | 475 kts | 44° |
| 2026-05-05 15:13 | 45.73983 | -4.32138 | 37959 ft | 475 kts | 45° |
| 2026-05-05 15:13 | 45.78627 | -4.25390 | 37953 ft | 476 kts | 45° |
| 2026-05-05 15:14 | 45.83252 | -4.18670 | 37952 ft | 476 kts | 45° |
| 2026-05-05 15:14 | 45.87867 | -4.11960 | 37950 ft | 476 kts | 45° |
| 2026-05-05 15:15 | 45.92509 | -4.05196 | 37940 ft | 476 kts | 45° |
| 2026-05-05 15:15 | 45.97160 | -3.98403 | 37945 ft | 476 kts | 45° |
| 2026-05-05 15:16 | 46.01757 | -3.91670 | 37954 ft | 475 kts | 45° |
| 2026-05-05 15:16 | 46.06387 | -3.84873 | 37954 ft | 474 kts | 45° |
| 2026-05-05 15:17 | 46.10988 | -3.78103 | 37939 ft | 474 kts | 45° |
| 2026-05-05 15:17 | 46.15595 | -3.71348 | 37928 ft | 475 kts | 45° |
| 2026-05-05 15:18 | 46.20178 | -3.64591 | 37924 ft | 475 kts | 45° |
| 2026-05-05 15:18 | 46.24770 | -3.57785 | 37926 ft | 474 kts | 45° |
| 2026-05-05 15:19 | 46.29356 | -3.50965 | 37929 ft | 473 kts | 45° |
| 2026-05-05 15:19 | 46.33941 | -3.44125 | 37927 ft | 472 kts | 45° |
| 2026-05-05 15:20 | 46.38484 | -3.37329 | 37918 ft | 472 kts | 45° |
| 2026-05-05 15:20 | 46.43045 | -3.30467 | 37919 ft | 472 kts | 46° |
| 2026-05-05 15:21 | 46.47587 | -3.23603 | 37910 ft | 472 kts | 46° |
| 2026-05-05 15:21 | 46.52116 | -3.16765 | 37916 ft | 472 kts | 46° |
| 2026-05-05 15:22 | 46.56356 | -3.09579 | 37911 ft | 471 kts | 52° |
| 2026-05-05 15:22 | 46.60055 | -3.01779 | 37902 ft | 469 kts | 59° |
| 2026-05-05 15:23 | 46.63363 | -2.93604 | 37898 ft | 470 kts | 60° |
| 2026-05-05 15:23 | 46.66618 | -2.85433 | 37898 ft | 471 kts | 60° |
| 2026-05-05 15:24 | 46.69889 | -2.77225 | 37894 ft | 470 kts | 60° |
| 2026-05-05 15:24 | 46.73177 | -2.68960 | 37901 ft | 470 kts | 60° |
| 2026-05-05 15:25 | 46.76429 | -2.60759 | 37896 ft | 470 kts | 60° |
| 2026-05-05 15:25 | 46.79693 | -2.52513 | 37898 ft | 471 kts | 60° |
| 2026-05-05 15:26 | 46.82955 | -2.44222 | 37886 ft | 472 kts | 60° |
| 2026-05-05 15:26 | 46.86201 | -2.35966 | 37890 ft | 472 kts | 60° |
| 2026-05-05 15:27 | 46.89617 | -2.27804 | 37885 ft | 472 kts | 59° |
| 2026-05-05 15:27 | 46.93079 | -2.19665 | 37895 ft | 472 kts | 59° |
| 2026-05-05 15:28 | 46.96500 | -2.11541 | 37888 ft | 471 kts | 59° |
| 2026-05-05 15:28 | 46.99918 | -2.03376 | 37884 ft | 471 kts | 59° |
| 2026-05-05 15:29 | 47.03229 | -1.95115 | 37867 ft | 471 kts | 61° |
| 2026-05-05 15:29 | 47.06422 | -1.86748 | 37852 ft | 472 kts | 61° |
| 2026-05-05 15:30 | 47.09621 | -1.78361 | 37853 ft | 471 kts | 61° |
| 2026-05-05 15:30 | 47.12834 | -1.70008 | 37857 ft | 471 kts | 61° |
| 2026-05-05 15:31 | 47.16125 | -1.61760 | 37847 ft | 472 kts | 57° |
| 2026-05-05 15:31 | 47.19898 | -1.53877 | 37853 ft | 473 kts | 54° |
| 2026-05-05 15:32 | 47.23802 | -1.46081 | 37853 ft | 473 kts | 54° |
| 2026-05-05 15:32 | 47.27687 | -1.38289 | 37856 ft | 474 kts | 54° |
| 2026-05-05 15:33 | 47.31572 | -1.30448 | 37850 ft | 473 kts | 55° |
| 2026-05-05 15:33 | 47.35421 | -1.22634 | 37845 ft | 473 kts | 55° |
| 2026-05-05 15:34 | 47.39297 | -1.14757 | 37842 ft | 473 kts | 55° |
| 2026-05-05 15:34 | 47.43156 | -1.06894 | 37840 ft | 474 kts | 55° |
| 2026-05-05 15:35 | 47.47001 | -0.99033 | 37845 ft | 473 kts | 55° |
| 2026-05-05 15:35 | 47.50791 | -0.91135 | 37686 ft | 473 kts | 58° |
| 2026-05-05 15:35 | 47.52483 | -0.87067 | 37490 ft | 471 kts | 61° |
| 2026-05-05 15:36 | 47.54040 | -0.82755 | 37255 ft | 467 kts | 65° |
| 2026-05-05 15:36 | 47.55366 | -0.78472 | 36955 ft | 463 kts | 68° |
| 2026-05-05 15:36 | 47.56531 | -0.74030 | 36741 ft | 460 kts | 71° |
| 2026-05-05 15:36 | 47.57608 | -0.69592 | 36632 ft | 460 kts | 71° |
| 2026-05-05 15:37 | 47.58669 | -0.65186 | 36559 ft | 459 kts | 71° |
| 2026-05-05 15:37 | 47.60809 | -0.56379 | 36200 ft | 453 kts | 71° |
| 2026-05-05 15:37 | 47.61878 | -0.51979 | 35644 ft | 452 kts | 71° |
| 2026-05-05 15:38 | 47.62933 | -0.47615 | 35008 ft | 454 kts | 71° |
| 2026-05-05 15:38 | 47.63988 | -0.43241 | 34398 ft | 454 kts | 71° |
| 2026-05-05 15:38 | 47.65043 | -0.38848 | 33818 ft | 452 kts | 71° |
| 2026-05-05 15:38 | 47.66086 | -0.34491 | 33265 ft | 448 kts | 72° |
| 2026-05-05 15:39 | 47.67116 | -0.30169 | 32718 ft | 445 kts | 72° |
| 2026-05-05 15:39 | 47.68132 | -0.25890 | 32043 ft | 441 kts | 72° |
| 2026-05-05 15:39 | 47.69148 | -0.21616 | 31313 ft | 438 kts | 72° |
| 2026-05-05 15:39 | 47.70157 | -0.17361 | 30642 ft | 435 kts | 72° |
| 2026-05-05 15:40 | 47.71153 | -0.13160 | 29944 ft | 438 kts | 72° |
| 2026-05-05 15:40 | 47.72168 | -0.08873 | 29286 ft | 441 kts | 72° |
| 2026-05-05 15:40 | 47.73181 | -0.04583 | 28816 ft | 444 kts | 72° |
| 2026-05-05 15:40 | 47.74191 | -0.00299 | 28378 ft | 446 kts | 72° |
| 2026-05-05 15:41 | 47.75219 | 0.04079 | 27969 ft | 449 kts | 72° |
| 2026-05-05 15:41 | 47.76248 | 0.08468 | 27574 ft | 451 kts | 72° |
| 2026-05-05 15:41 | 47.77277 | 0.12870 | 27185 ft | 453 kts | 72° |
| 2026-05-05 15:41 | 47.78316 | 0.17322 | 26788 ft | 455 kts | 72° |
| 2026-05-05 15:42 | 47.79353 | 0.21757 | 26386 ft | 457 kts | 71° |
| 2026-05-05 15:42 | 47.80689 | 0.25975 | 25958 ft | 461 kts | 58° |
| 2026-05-05 15:42 | 47.82818 | 0.29566 | 25556 ft | 467 kts | 42° |
| 2026-05-05 15:42 | 47.85460 | 0.32430 | 25168 ft | 471 kts | 37° |
| 2026-05-05 15:43 | 47.88138 | 0.35190 | 24767 ft | 472 kts | 36° |
| 2026-05-05 15:43 | 47.90850 | 0.37998 | 24372 ft | 474 kts | 37° |
| 2026-05-05 15:43 | 47.93422 | 0.41051 | 23953 ft | 473 kts | 45° |
| 2026-05-05 15:43 | 47.95546 | 0.44769 | 23558 ft | 472 kts | 56° |
| 2026-05-05 15:44 | 47.97346 | 0.48804 | 23109 ft | 468 kts | 58° |
| 2026-05-05 15:44 | 47.99071 | 0.52815 | 22454 ft | 458 kts | 58° |
| 2026-05-05 15:44 | 48.00769 | 0.56797 | 21901 ft | 448 kts | 58° |
| 2026-05-05 15:44 | 48.02425 | 0.60684 | 21343 ft | 448 kts | 58° |
| 2026-05-05 15:45 | 48.04107 | 0.64624 | 20732 ft | 451 kts | 58° |
| 2026-05-05 15:45 | 48.05794 | 0.68583 | 20124 ft | 454 kts | 59° |
| 2026-05-05 15:45 | 48.07488 | 0.72560 | 19507 ft | 458 kts | 59° |
| 2026-05-05 15:45 | 48.09201 | 0.76579 | 18880 ft | 457 kts | 59° |
| 2026-05-05 15:46 | 48.10903 | 0.80563 | 18256 ft | 452 kts | 58° |
| 2026-05-05 15:46 | 48.12577 | 0.84454 | 17640 ft | 444 kts | 58° |
| 2026-05-05 15:46 | 48.14230 | 0.88302 | 17106 ft | 434 kts | 58° |
| 2026-05-05 15:46 | 48.15837 | 0.92056 | 16600 ft | 424 kts | 58° |
| 2026-05-05 15:47 | 48.17389 | 0.95693 | 16134 ft | 415 kts | 58° |
| 2026-05-05 15:47 | 48.18935 | 0.99329 | 15669 ft | 406 kts | 58° |
| 2026-05-05 15:47 | 48.20434 | 1.02862 | 15227 ft | 397 kts | 58° |
| 2026-05-05 15:47 | 48.21897 | 1.06317 | 14785 ft | 392 kts | 58° |
| 2026-05-05 15:48 | 48.23347 | 1.09749 | 14575 ft | 393 kts | 58° |
| 2026-05-05 15:48 | 48.24807 | 1.13208 | 14408 ft | 392 kts | 58° |
| 2026-05-05 15:48 | 48.26242 | 1.16611 | 14007 ft | 386 kts | 58° |
| 2026-05-05 15:48 | 48.27665 | 1.19988 | 13600 ft | 379 kts | 58° |
| 2026-05-05 15:49 | 48.29059 | 1.23298 | 13177 ft | 372 kts | 58° |
| 2026-05-05 15:49 | 48.30435 | 1.26571 | 12575 ft | 371 kts | 58° |
| 2026-05-05 15:49 | 48.31815 | 1.29860 | 12010 ft | 373 kts | 58° |
| 2026-05-05 15:49 | 48.33197 | 1.33157 | 11537 ft | 375 kts | 58° |
| 2026-05-05 15:50 | 48.34581 | 1.36467 | 11096 ft | 376 kts | 57° |
| 2026-05-05 15:50 | 48.35973 | 1.39796 | 10672 ft | 377 kts | 57° |
| 2026-05-05 15:50 | 48.37371 | 1.43146 | 10260 ft | 376 kts | 57° |
| 2026-05-05 15:50 | 48.38742 | 1.46437 | 9789 ft | 370 kts | 57° |
| 2026-05-05 15:51 | 48.40087 | 1.49672 | 9514 ft | 358 kts | 56° |
| 2026-05-05 15:51 | 48.41380 | 1.52784 | 9226 ft | 348 kts | 56° |
| 2026-05-05 15:51 | 48.42649 | 1.55838 | 8912 ft | 343 kts | 56° |
| 2026-05-05 15:51 | 48.43906 | 1.58862 | 8600 ft | 341 kts | 56° |
| 2026-05-05 15:52 | 48.45178 | 1.61918 | 8227 ft | 344 kts | 56° |
| 2026-05-05 15:52 | 48.46437 | 1.64953 | 7895 ft | 343 kts | 56° |
| 2026-05-05 15:52 | 48.47686 | 1.67984 | 7536 ft | 336 kts | 57° |
| 2026-05-05 15:52 | 48.48903 | 1.70943 | 7141 ft | 329 kts | 57° |
| 2026-05-05 15:53 | 48.50099 | 1.73847 | 6787 ft | 320 kts | 57° |
| 2026-05-05 15:53 | 48.51236 | 1.76618 | 6519 ft | 311 kts | 56° |
| 2026-05-05 15:53 | 48.52360 | 1.79358 | 6182 ft | 304 kts | 56° |
| 2026-05-05 15:53 | 48.53456 | 1.82022 | 5774 ft | 294 kts | 56° |
| 2026-05-05 15:54 | 48.54494 | 1.84555 | 5535 ft | 276 kts | 56° |
| 2026-05-05 15:54 | 48.55495 | 1.86997 | 5263 ft | 268 kts | 56° |
| 2026-05-05 15:54 | 48.56463 | 1.89360 | 4985 ft | 262 kts | 56° |
| 2026-05-05 15:54 | 48.57413 | 1.91673 | 4701 ft | 257 kts | 56° |
| 2026-05-05 15:55 | 48.58341 | 1.93934 | 4428 ft | 253 kts | 56° |
| 2026-05-05 15:55 | 48.59265 | 1.96194 | 4147 ft | 250 kts | 56° |
| 2026-05-05 15:55 | 48.60163 | 1.98389 | 3936 ft | 243 kts | 56° |
| 2026-05-05 15:55 | 48.60995 | 2.00531 | 3959 ft | 226 kts | 58° |
| 2026-05-05 15:56 | 48.61727 | 2.02534 | 3968 ft | 213 kts | 58° |
| 2026-05-05 15:56 | 48.62412 | 2.04459 | 3963 ft | 202 kts | 59° |
| 2026-05-05 15:56 | 48.63061 | 2.06303 | 3949 ft | 195 kts | 58° |
| 2026-05-05 15:56 | 48.63675 | 2.08055 | 3842 ft | 186 kts | 58° |
| 2026-05-05 15:57 | 48.64275 | 2.09765 | 3569 ft | 181 kts | 58° |
| 2026-05-05 15:57 | 48.64854 | 2.11417 | 3306 ft | 177 kts | 57° |
| 2026-05-05 15:57 | 48.65424 | 2.13039 | 3057 ft | 172 kts | 58° |
| 2026-05-05 15:57 | 48.65982 | 2.14631 | 2813 ft | 167 kts | 58° |
| 2026-05-05 15:58 | 48.66512 | 2.16139 | 2584 ft | 162 kts | 57° |
| 2026-05-05 15:58 | 48.67038 | 2.17632 | 2369 ft | 156 kts | 58° |
| 2026-05-05 15:58 | 48.67532 | 2.19038 | 2165 ft | 149 kts | 58° |
| 2026-05-05 15:58 | 48.68014 | 2.20410 | 1965 ft | 142 kts | 57° |
| 2026-05-05 15:59 | 48.68472 | 2.21711 | 1806 ft | 140 kts | 57° |
| 2026-05-05 15:59 | 48.68935 | 2.23017 | 1639 ft | 141 kts | 58° |
| 2026-05-05 15:59 | 48.69397 | 2.24325 | 1452 ft | 141 kts | 58° |
| 2026-05-05 15:59 | 48.69538 | 2.24726 | 1386 ft | 140 kts | 58° |